Time;durP1;ratioP1;P1;durP2;ratioP2;P2;SDS_P1;SDS_P2;PMS_P1;PMS_P2;Temp;Humidity;BMP_temperature;BMP_pressure;BME280_temperature;BME280_humidity;BME280_pressure;Samples;Min_cycle;Max_cycle;Signal;HPM_P1;HPM_P2
2023/01/10 00:02:16;;;;;;;7.53;3.22;;;;;;;9.26;65.61;101209.97;5109506;28;20080;-66
2023/01/10 00:04:45;;;;;;;10.32;2.85;;;;;;;9.23;65.74;101213.91;5116404;28;20051;-64
2023/01/10 00:07:14;;;;;;;11.75;3.05;;;;;;;9.25;65.71;101219.06;5103792;28;20040;-65
2023/01/10 00:09:42;;;;;;;10.52;2.58;;;;;;;9.23;65.51;101218.44;5108088;28;20386;-66
2023/01/10 00:14:55;;;;;;;9.65;3.25;;;;;;;9.22;66.03;101230.19;5097152;28;20044;-66
2023/01/10 00:17:23;;;;;;;11.35;3.60;;;;;;;9.10;66.13;101224.59;5100073;28;20079;-66
2023/01/10 00:19:51;;;;;;;10.93;3.00;;;;;;;9.20;65.58;101253.72;5105488;28;20051;-66
2023/01/10 00:22:23;;;;;;;9.32;3.13;;;;;;;9.19;66.20;101250.19;5100134;28;20489;-66
2023/01/10 00:24:51;;;;;;;8.13;3.17;;;;;;;9.17;66.23;101246.88;5104734;28;20412;-65
2023/01/10 00:27:22;;;;;;;10.90;2.80;;;;;;;9.18;65.39;101253.09;5104303;28;20063;-63
2023/01/10 00:29:51;;;;;;;11.07;3.17;;;;;;;9.16;65.50;101255.13;5097845;28;20062;-66
2023/01/10 00:32:20;;;;;;;8.57;2.35;;;;;;;9.05;66.16;101243.97;5103118;28;20127;-66
2023/01/10 00:34:48;;;;;;;9.02;3.33;;;;;;;9.13;66.16;101267.09;5105291;28;20044;-65
2023/01/10 00:37:16;;;;;;;6.72;2.63;;;;;;;9.13;65.88;101283.19;5103362;28;20056;-64
2023/01/10 00:39:45;;;;;;;11.65;2.97;;;;;;;9.12;65.29;101271.63;5105248;28;20059;-66
2023/01/10 00:44:58;;;;;;;7.15;2.97;;;;;;;9.11;65.25;101278.03;5104449;28;20046;-66
2023/01/10 00:47:26;;;;;;;10.48;3.00;;;;;;;9.11;65.46;101282.56;5098906;28;20048;-66
2023/01/10 00:49:54;;;;;;;9.13;2.72;;;;;;;9.09;65.46;101288.13;5103540;28;20112;-64
2023/01/10 00:52:22;;;;;;;12.50;3.60;;;;;;;9.10;65.89;101283.59;5103260;28;20062;-65
2023/01/10 00:54:51;;;;;;;12.57;3.70;;;;;;;9.09;65.71;101296.16;5095537;28;20037;-65
2023/01/10 00:57:19;;;;;;;10.60;2.90;;;;;;;9.07;65.50;101290.19;5103275;28;20565;-64
2023/01/10 00:59:47;;;;;;;9.07;2.95;;;;;;;9.07;65.60;101295.53;5103534;28;20080;-65
2023/01/10 01:02:15;;;;;;;9.20;3.20;;;;;;;9.05;65.16;101294.91;5104866;28;20055;-64
2023/01/10 01:04:43;;;;;;;12.32;3.90;;;;;;;9.07;65.93;101289.34;5102999;28;20126;-65
2023/01/10 01:07:10;;;;;;;7.05;3.20;;;;;;;9.05;65.47;101297.59;5100736;28;20059;-65
2023/01/10 01:10:25;;;;;;;7.05;2.65;;;;;;;9.05;65.87;101294.09;5106745;28;20044;-65
2023/01/10 01:12:28;;;;;;;13.10;3.00;;;;;;;9.04;65.07;101295.13;5101736;28;20052;-63
2023/01/10 01:14:55;;;;;;;8.85;2.90;;;;;;;9.04;65.28;101308.53;5104637;28;20040;-64
2023/01/10 01:17:24;;;;;;;8.65;2.63;;;;;;;8.94;65.38;101300.03;5113744;28;20070;-65
2023/01/10 01:19:52;;;;;;;11.98;2.90;;;;;;;9.02;65.91;101313.25;5097562;28;20100;-65
2023/01/10 01:22:20;;;;;;;11.98;3.72;;;;;;;9.00;65.23;101318.00;5098671;28;20131;-65
2023/01/10 01:24:48;;;;;;;10.90;2.90;;;;;;;8.98;64.98;101323.56;5103133;28;20079;-65
2023/01/10 01:27:15;;;;;;;9.02;2.78;;;;;;;8.97;65.62;101327.25;5103857;28;21111;-65
2023/01/10 01:29:45;;;;;;;10.10;3.28;;;;;;;8.97;65.97;101335.31;5102091;28;20048;-62
2023/01/10 01:32:12;;;;;;;14.10;3.58;;;;;;;8.95;65.17;101331.16;5103056;28;20079;-65
2023/01/10 01:34:40;;;;;;;12.82;3.47;;;;;;;8.94;65.54;101338.38;5103661;28;20068;-65
2023/01/10 01:37:08;;;;;;;12.65;2.65;;;;;;;8.96;65.34;101343.53;5101665;28;20048;-63
2023/01/10 01:39:36;;;;;;;9.65;2.42;;;;;;;8.93;65.46;101341.25;5100525;28;20048;-64
2023/01/10 01:42:04;;;;;;;9.05;3.17;;;;;;;8.93;65.28;101349.31;5102861;28;20040;-65
2023/01/10 01:44:36;;;;;;;14.35;3.13;;;;;;;8.92;65.71;101347.66;5091044;28;20048;-65
2023/01/10 01:47:07;;;;;;;15.15;3.67;;;;;;;8.91;65.28;101357.53;5103259;28;20078;-64
2023/01/10 01:49:40;;;;;;;11.98;2.90;;;;;;;8.89;65.54;101362.28;5097258;28;20075;-62
2023/01/10 01:52:16;;;;;;;9.65;3.45;;;;;;;8.90;65.76;101371.13;5097105;28;20071;-66
2023/01/10 01:54:43;;;;;;;11.32;3.72;;;;;;;8.88;65.70;101374.03;5091100;28;20048;-56
2023/01/10 01:57:14;;;;;;;14.10;3.50;;;;;;;8.87;65.41;101367.00;5101222;28;20039;-65
2023/01/10 01:59:45;;;;;;;12.00;3.45;;;;;;;8.88;65.75;101375.88;5108394;28;20109;-65
2023/01/10 02:02:19;;;;;;;12.02;3.25;;;;;;;8.88;65.57;101373.19;5104072;28;20051;-64
2023/01/10 02:04:51;;;;;;;11.95;3.33;;;;;;;8.87;65.94;101368.84;5100431;28;20066;-65
2023/01/10 02:07:21;;;;;;;10.05;3.25;;;;;;;8.87;65.63;101367.00;5105627;28;20051;-65
2023/01/10 02:09:54;;;;;;;11.45;2.63;;;;;;;8.85;65.29;101365.53;5094720;28;20056;-64
2023/01/10 02:12:22;;;;;;;7.28;2.72;;;;;;;8.85;65.44;101369.06;5088800;28;20048;-63
2023/01/10 02:14:51;;;;;;;10.77;3.60;;;;;;;8.84;65.56;101375.44;5101106;28;20083;-65
2023/01/10 02:17:21;;;;;;;13.63;3.35;;;;;;;8.83;65.42;101373.78;5102831;28;20050;-63
2023/01/10 02:19:54;;;;;;;15.52;3.60;;;;;;;8.85;65.55;101373.59;5106557;28;20106;-66
2023/01/10 02:22:57;;;;;;;7.20;2.80;;;;;;;8.83;65.56;101379.13;5103312;28;20060;-66
2023/01/10 02:26:05;;;;;;;12.75;2.88;;;;;;;8.82;65.86;101370.28;5090691;28;20108;-65
2023/01/10 02:29:01;;;;;;;14.93;3.05;;;;;;;8.81;65.06;101387.38;5100242;28;20044;-66
2023/01/10 02:31:50;;;;;;;8.10;3.10;;;;;;;8.74;64.79;101375.78;5099121;28;20113;-66
2023/01/10 02:34:25;;;;;;;10.10;3.00;;;;;;;8.80;65.63;101384.91;5109031;28;20044;-63
2023/01/10 02:37:04;;;;;;;8.30;2.38;;;;;;;8.80;64.91;101388.41;5102971;28;20654;-65
2023/01/10 02:39:39;;;;;;;12.18;3.00;;;;;;;8.80;65.25;101388.41;5100526;28;20070;-63
2023/01/10 02:42:09;;;;;;;11.13;3.97;;;;;;;8.79;65.83;101391.28;5099143;28;20126;-65
2023/01/10 02:44:44;;;;;;;10.05;3.30;;;;;;;8.78;65.56;101386.94;5106172;28;20468;-62
2023/01/10 02:47:14;;;;;;;14.80;3.97;;;;;;;8.77;65.14;101394.16;5103726;28;20058;-66
2023/01/10 02:49:43;;;;;;;12.32;3.08;;;;;;;8.78;66.05;101392.31;5103638;28;20040;-66
2023/01/10 02:52:17;;;;;;;13.40;2.83;;;;;;;8.77;65.24;101402.19;5106650;28;20052;-66
2023/01/10 02:54:45;;;;;;;13.50;3.22;;;;;;;8.77;65.56;101401.38;5106469;28;20516;-65
2023/01/10 02:57:26;;;;;;;7.07;2.80;;;;;;;8.76;65.49;101392.50;5103420;28;20059;-66
2023/01/10 03:00:20;;;;;;;11.07;2.97;;;;;;;8.76;65.82;101407.75;5111812;28;20047;-66
2023/01/10 03:03:01;;;;;;;17.92;3.50;;;;;;;8.75;64.86;101404.25;5094177;28;20040;-65
2023/01/10 03:05:42;;;;;;;10.32;2.67;;;;;;;8.74;65.19;101407.94;5102467;28;20051;-64
2023/01/10 03:08:23;;;;;;;11.63;3.55;;;;;;;8.74;65.67;101417.84;5109297;28;20130;-66
2023/01/10 03:10:56;;;;;;;11.85;2.80;;;;;;;8.73;65.40;101417.00;5105926;28;20052;-64
2023/01/10 03:13:28;;;;;;;12.90;4.25;;;;;;;8.63;65.44;101410.38;5102090;28;20125;-66
2023/01/10 03:15:58;;;;;;;10.10;2.95;;;;;;;8.71;65.89;101426.28;5104772;28;20052;-65
2023/01/10 03:18:34;;;;;;;11.57;3.28;;;;;;;8.71;65.64;101437.00;5114693;28;20091;-66
2023/01/10 03:21:05;;;;;;;12.82;2.50;;;;;;;8.71;65.14;101442.34;5102889;28;20086;-65
2023/01/10 03:23:35;;;;;;;15.18;2.92;;;;;;;8.71;65.47;101450.38;5105005;28;20144;-66
2023/01/10 03:26:04;;;;;;;13.23;4.00;;;;;;;8.69;65.58;101452.44;5103367;28;20079;-65
2023/01/10 03:28:37;;;;;;;7.30;2.65;;;;;;;8.69;65.77;101461.31;5095353;28;20099;-66
2023/01/10 03:31:11;;;;;;;14.68;3.42;;;;;;;8.68;65.64;101456.97;5105781;28;20074;-65
2023/01/10 03:33:41;;;;;;;9.98;3.05;;;;;;;8.68;64.88;101453.44;5102188;28;20052;-66
2023/01/10 03:36:19;;;;;;;11.05;2.83;;;;;;;8.68;64.74;101461.50;5101960;28;20060;-66
2023/01/10 03:38:51;;;;;;;12.10;4.15;;;;;;;8.67;65.26;101462.50;5105784;28;20048;-66
2023/01/10 03:41:32;;;;;;;14.40;3.17;;;;;;;8.65;65.84;101461.91;5102590;28;20636;-66
2023/01/10 03:47:04;;;;;;;9.68;2.53;;;;;;;8.64;64.96;101463.75;5103591;28;20051;-65
2023/01/10 03:49:37;;;;;;;9.70;2.90;;;;;;;8.62;65.55;101465.81;5099579;28;20040;-63
2023/01/10 03:52:07;;;;;;;13.65;2.75;;;;;;;8.63;65.18;101469.31;5107226;28;20076;-65
2023/01/10 03:54:34;;;;;;;11.57;3.10;;;;;;;8.63;66.12;101482.72;5110326;28;20051;-64
2023/01/10 03:57:02;;;;;;;11.38;3.35;;;;;;;8.62;65.75;101487.25;5104502;28;20082;-66
2023/01/10 03:59:30;;;;;;;16.08;3.03;;;;;;;8.62;65.94;101486.41;5105404;28;20059;-66
2023/01/10 04:01:58;;;;;;;13.73;3.20;;;;;;;8.61;65.69;101496.31;5118286;28;20113;-65
2023/01/10 04:04:26;;;;;;;8.18;2.90;;;;;;;8.62;65.57;101497.97;5111174;28;20052;-63
2023/01/10 04:06:55;;;;;;;9.95;2.30;;;;;;;8.62;65.13;101497.97;5106426;28;20089;-66
2023/01/10 04:09:23;;;;;;;11.15;2.70;;;;;;;8.62;65.90;101499.81;5121105;28;20051;-66
2023/01/10 04:11:51;;;;;;;13.15;2.08;;;;;;;8.62;66.00;101491.78;5106970;28;20054;-66
2023/01/10 04:14:19;;;;;;;9.77;2.30;;;;;;;8.61;66.00;101500.84;5108197;28;20055;-62
2023/01/10 04:16:47;;;;;;;8.55;3.03;;;;;;;8.60;66.10;101505.38;5103600;28;20086;-65
2023/01/10 04:19:15;;;;;;;12.88;3.28;;;;;;;8.59;65.05;101497.53;5094455;28;20064;-64
2023/01/10 04:21:42;;;;;;;16.17;3.50;;;;;;;8.60;65.74;101513.41;5108918;28;20108;-65
2023/01/10 04:24:12;;;;;;;10.95;3.17;;;;;;;8.61;65.52;101524.94;5105865;28;20072;-65
2023/01/10 04:26:40;;;;;;;13.68;4.18;;;;;;;8.61;65.44;101524.94;5111396;28;20044;-66
2023/01/10 04:29:07;;;;;;;11.65;2.78;;;;;;;8.60;65.56;101523.28;5101904;28;20116;-64
2023/01/10 04:31:35;;;;;;;8.20;2.80;;;;;;;8.50;65.98;101512.91;5106443;28;20123;-65
2023/01/10 04:34:03;;;;;;;14.68;3.05;;;;;;;8.60;65.85;101524.13;5108363;28;20047;-63
2023/01/10 04:36:31;;;;;;;18.98;3.28;;;;;;;8.60;65.22;101520.63;5104541;28;20039;-65
2023/01/10 04:38:59;;;;;;;11.60;3.25;;;;;;;8.59;65.66;101519.78;5117664;28;20047;-65
2023/01/10 04:41:28;;;;;;;23.23;3.25;;;;;;;8.59;65.89;101516.28;5102898;28;20059;-65
2023/01/10 04:43:56;;;;;;;16.13;3.17;;;;;;;8.58;65.75;101512.75;5105085;28;20135;-63
2023/01/10 04:46:24;;;;;;;13.30;3.05;;;;;;;8.59;65.29;101524.31;5098319;28;20052;-65
2023/01/10 04:48:52;;;;;;;12.55;2.65;;;;;;;8.59;65.83;101513.59;5100873;28;20051;-65
2023/01/10 04:51:20;;;;;;;11.98;4.28;;;;;;;8.59;65.79;101525.13;5102966;28;20056;-64
2023/01/10 04:53:48;;;;;;;12.80;2.72;;;;;;;8.60;65.58;101552.75;5107237;28;20107;-62
2023/01/10 04:56:18;;;;;;;11.43;3.30;;;;;;;8.59;65.96;101549.25;5096846;28;20139;-65
2023/01/10 04:58:48;;;;;;;10.20;2.67;;;;;;;8.48;66.00;101539.88;5114148;28;20161;-65
2023/01/10 05:01:17;;;;;;;12.65;3.47;;;;;;;8.58;65.88;101541.41;5103612;28;20036;-65
2023/01/10 05:03:47;;;;;;;8.25;3.03;;;;;;;8.56;65.81;101530.06;5094343;28;20413;-65
2023/01/10 05:06:15;;;;;;;13.85;3.70;;;;;;;8.57;66.40;101526.34;5101987;28;20134;-65
2023/01/10 05:08:44;;;;;;;10.48;2.88;;;;;;;8.56;65.75;101541.59;5101341;28;20099;-65
2023/01/10 05:11:12;;;;;;;19.38;3.83;;;;;;;8.55;65.84;101553.34;5104082;28;20071;-61
2023/01/10 05:13:41;;;;;;;12.90;3.53;;;;;;;8.55;66.24;101550.66;5104449;28;20199;-65
2023/01/10 05:16:10;;;;;;;12.45;3.08;;;;;;;8.54;65.78;101551.69;5100462;28;20048;-65
2023/01/10 05:18:38;;;;;;;15.88;3.63;;;;;;;8.54;66.18;101570.44;5104663;28;20385;-65
2023/01/10 05:21:08;;;;;;;12.45;2.90;;;;;;;8.54;65.84;101591.03;5097624;28;20060;-65
2023/01/10 05:23:35;;;;;;;17.20;3.38;;;;;;;8.52;66.48;101599.25;5103067;28;20052;-64
2023/01/10 05:26:08;;;;;;;18.15;4.43;;;;;;;8.54;65.70;101599.91;5103427;28;20132;-65
2023/01/10 05:28:36;;;;;;;9.63;3.15;;;;;;;8.35;65.73;101565.69;5091361;28;20080;-65
2023/01/10 05:31:06;;;;;;;12.77;3.05;;;;;;;8.53;66.15;101603.59;5094412;28;20044;-65
2023/01/10 05:33:36;;;;;;;13.85;3.50;;;;;;;8.54;66.19;101604.44;5104016;28;20048;-65
2023/01/10 05:36:06;;;;;;;19.63;3.15;;;;;;;8.53;66.01;101606.28;5099552;28;20044;-64
2023/01/10 05:38:33;;;;;;;13.48;3.10;;;;;;;8.53;66.22;101600.09;5087133;28;20464;-65
2023/01/10 05:41:01;;;;;;;18.98;4.00;;;;;;;8.51;65.89;101602.97;5102796;28;20058;-64
2023/01/10 05:43:29;;;;;;;11.93;3.00;;;;;;;8.50;66.61;101593.25;5100908;28;20059;-65
2023/01/10 05:45:57;;;;;;;14.70;4.30;;;;;;;8.51;66.45;101608.31;5100979;28;20091;-65
2023/01/10 05:48:25;;;;;;;17.80;4.43;;;;;;;8.52;66.45;101612.66;5095908;28;20735;-64
2023/01/10 05:50:54;;;;;;;14.63;4.00;;;;;;;8.53;65.60;101616.16;5102788;28;20591;-63
2023/01/10 05:53:22;;;;;;;14.43;4.55;;;;;;;8.54;65.57;101615.16;5102468;28;20059;-64
2023/01/10 05:55:54;;;;;;;19.00;4.25;;;;;;;8.53;65.46;101616.16;5099463;28;20052;-64
2023/01/10 05:58:22;;;;;;;16.88;3.90;;;;;;;8.43;65.74;101606.59;5114456;28;20047;-65
2023/01/10 06:00:50;;;;;;;20.42;3.60;;;;;;;8.52;65.78;101623.38;5106994;28;20103;-65
2023/01/10 06:03:19;;;;;;;15.82;3.63;;;;;;;8.51;65.67;101618.19;5114051;28;20047;-64
2023/01/10 06:05:47;;;;;;;16.23;3.05;;;;;;;8.52;65.79;101619.88;5100987;28;20464;-57
2023/01/10 06:08:17;;;;;;;18.38;4.97;;;;;;;8.51;65.68;101627.06;5097003;28;20047;-64
2023/01/10 06:10:44;;;;;;;21.30;3.63;;;;;;;8.50;66.42;101636.13;5104199;28;20115;-59
2023/01/10 06:13:12;;;;;;;21.13;4.63;;;;;;;8.57;65.60;101634.34;5103637;28;20083;-64
2023/01/10 06:15:40;;;;;;;16.27;3.22;;;;;;;8.55;66.00;101624.84;5104766;28;20119;-61
2023/01/10 06:18:08;;;;;;;24.77;3.92;;;;;;;8.52;65.91;101620.69;5096848;28;20056;-63
2023/01/10 06:20:39;;;;;;;16.65;3.38;;;;;;;8.52;65.99;101615.34;5109425;28;20130;-65
2023/01/10 06:23:07;;;;;;;19.25;3.20;;;;;;;8.52;65.97;101619.88;5104209;28;20059;-64
2023/01/10 06:25:39;;;;;;;18.27;3.83;;;;;;;8.50;65.41;101622.72;5099886;28;20059;-65
2023/01/10 06:28:08;;;;;;;15.20;3.08;;;;;;;8.52;66.22;101622.53;5103424;28;20059;-62
2023/01/10 06:30:36;;;;;;;27.48;5.22;;;;;;;8.52;66.17;101627.91;5102449;28;20147;-65
2023/01/10 06:33:05;;;;;;;17.10;4.05;;;;;;;8.53;65.59;101629.56;4746511;28;10000226;-63
2023/01/10 06:35:34;;;;;;;17.08;3.92;;;;;;;8.52;65.42;101630.56;5098273;28;20044;-65
2023/01/10 06:38:02;;;;;;;17.88;4.78;;;;;;;8.50;65.53;101638.81;5087668;28;20466;-68
2023/01/10 06:40:30;;;;;;;13.00;4.80;;;;;;;8.50;65.45;101649.53;5099065;28;20138;-65
2023/01/10 06:42:59;;;;;;;15.43;3.80;;;;;;;8.47;65.70;101640.00;5089602;28;20112;-64
2023/01/10 06:45:27;;;;;;;15.63;3.70;;;;;;;8.49;65.63;101637.13;5098370;28;20055;-65
2023/01/10 06:47:55;;;;;;;20.02;3.55;;;;;;;8.48;66.31;101648.88;5092387;28;20063;-66
2023/01/10 06:50:23;;;;;;;12.32;3.33;;;;;;;8.48;65.99;101641.66;5100754;28;20087;-66
2023/01/10 06:52:58;;;;;;;17.13;4.43;;;;;;;8.46;66.09;101649.06;5101130;28;20095;-65
2023/01/10 06:55:26;;;;;;;14.40;3.60;;;;;;;8.46;65.69;101650.91;5096887;28;20087;-67
2023/01/10 06:57:56;;;;;;;14.32;3.53;;;;;;;8.45;65.80;101655.44;5097844;28;20138;-66
2023/01/10 07:00:27;;;;;;;12.70;3.42;;;;;;;8.46;65.93;101681.22;5099238;28;20052;-65
2023/01/10 07:02:56;;;;;;;20.70;4.00;;;;;;;8.47;65.00;101680.19;5098557;28;20083;-65
2023/01/10 07:05:24;;;;;;;18.65;4.45;;;;;;;8.46;65.45;101680.38;5099110;28;20044;-66
2023/01/10 07:07:51;;;;;;;17.98;4.18;;;;;;;8.44;65.45;101682.41;5099626;28;20129;-66
2023/01/10 07:10:19;;;;;;;18.35;4.65;;;;;;;8.43;65.91;101694.16;5098698;28;20047;-66
2023/01/10 07:12:47;;;;;;;21.45;4.50;;;;;;;8.44;65.59;101695.81;5096484;28;20083;-70
2023/01/10 07:15:15;;;;;;;20.13;4.60;;;;;;;8.39;66.13;101701.72;5092257;28;20052;-67
2023/01/10 07:17:44;;;;;;;19.67;3.85;;;;;;;8.36;65.31;101707.47;5101759;28;20071;-67
2023/01/10 07:20:12;;;;;;;16.00;3.05;;;;;;;8.37;65.72;101705.59;5103113;28;20048;-67
2023/01/10 07:22:40;;;;;;;16.50;3.80;;;;;;;8.35;65.19;101711.16;5095077;28;20056;-67
2023/01/10 07:25:10;;;;;;;14.70;3.20;;;;;;;8.33;65.05;101710.50;5095679;28;20071;-67
2023/01/10 07:27:42;;;;;;;15.48;3.75;;;;;;;8.33;65.74;101713.19;5102065;28;20119;-67
2023/01/10 07:30:11;;;;;;;19.02;3.58;;;;;;;8.32;65.77;101735.59;5101436;28;20173;-67
2023/01/10 07:32:39;;;;;;;11.75;3.20;;;;;;;8.32;65.26;101730.25;5095653;28;20076;-66
2023/01/10 07:35:09;;;;;;;13.30;3.72;;;;;;;8.32;65.25;101737.44;5106451;28;20051;-66
2023/01/10 07:37:37;;;;;;;23.05;4.18;;;;;;;8.32;65.30;101737.44;5099451;28;20044;-67
2023/01/10 07:40:05;;;;;;;16.50;3.72;;;;;;;8.31;65.67;101741.13;5106021;28;20043;-67
2023/01/10 07:42:33;;;;;;;16.08;4.07;;;;;;;8.29;64.94;101749.34;5099217;28;20131;-66
2023/01/10 07:45:01;;;;;;;14.23;3.30;;;;;;;8.30;65.56;101745.66;5105625;28;20048;-67
2023/01/10 07:47:29;;;;;;;13.20;3.50;;;;;;;8.30;65.35;101739.47;5104983;28;20048;-67
2023/01/10 07:49:57;;;;;;;17.20;4.22;;;;;;;8.29;65.25;101745.84;5103111;28;20112;-67
2023/01/10 07:52:26;;;;;;;15.43;3.85;;;;;;;8.27;65.13;101754.06;5102943;28;20147;-67
2023/01/10 07:54:54;;;;;;;15.75;3.28;;;;;;;8.25;66.05;101756.09;5104828;28;20134;-67
2023/01/10 07:57:22;;;;;;;21.10;4.07;;;;;;;8.27;64.94;101762.09;5104721;28;20048;-67
2023/01/10 07:59:50;;;;;;;16.50;3.70;;;;;;;8.27;65.02;101759.41;5105447;28;20100;-67
2023/01/10 08:02:17;;;;;;;13.63;3.50;;;;;;;8.27;65.05;101761.25;5099553;28;20087;-66
2023/01/10 08:04:45;;;;;;;14.18;3.03;;;;;;;8.26;65.10;101757.75;5106199;28;20052;-66
2023/01/10 08:07:13;;;;;;;14.75;3.97;;;;;;;8.25;65.65;101763.28;5104655;28;20107;-67
2023/01/10 08:09:42;;;;;;;18.77;3.45;;;;;;;8.23;65.65;101751.94;5104186;28;20087;-67
2023/01/10 08:12:10;;;;;;;19.67;3.47;;;;;;;8.22;65.38;101753.78;5104238;28;20123;-67
2023/01/10 08:14:38;;;;;;;17.15;3.78;;;;;;;8.23;65.69;101752.78;5099231;28;20044;-66
2023/01/10 08:17:06;;;;;;;14.52;3.13;;;;;;;8.21;64.88;101749.44;5086541;28;20135;-66
2023/01/10 08:19:33;;;;;;;20.67;4.38;;;;;;;8.24;64.82;101759.78;5102811;28;20048;-67
2023/01/10 08:22:02;;;;;;;13.82;2.95;;;;;;;8.23;65.80;101754.63;5099225;28;20052;-67
2023/01/10 08:24:29;;;;;;;15.73;3.13;;;;;;;8.24;65.62;101757.09;5104852;28;20079;-66
2023/01/10 08:26:59;;;;;;;17.85;3.47;;;;;;;8.26;65.47;101755.06;5103964;28;20048;-67
2023/01/10 08:29:27;;;;;;;17.90;3.33;;;;;;;8.20;65.23;101742.44;5103421;28;20058;-67
2023/01/10 08:31:56;;;;;;;15.02;4.57;;;;;;;8.26;64.78;101756.94;5105874;28;20067;-67
2023/01/10 08:34:24;;;;;;;14.20;3.63;;;;;;;8.25;65.54;101753.41;5098141;28;20048;-66
2023/01/10 08:36:52;;;;;;;20.27;5.28;;;;;;;8.24;65.15;101759.78;5104578;28;20048;-67
2023/01/10 08:39:21;;;;;;;11.57;3.35;;;;;;;8.24;65.12;101756.28;5104113;28;20054;-67
2023/01/10 08:41:49;;;;;;;16.23;3.90;;;;;;;8.24;65.15;101761.63;5096415;28;20148;-67
2023/01/10 08:44:18;;;;;;;23.35;4.32;;;;;;;8.24;64.92;101765.13;5099488;28;20052;-61
2023/01/10 08:46:46;;;;;;;17.33;3.42;;;;;;;8.25;65.47;101755.25;5094599;28;20048;-67
2023/01/10 08:49:14;;;;;;;14.07;3.75;;;;;;;8.25;65.12;101766.81;5103317;28;20040;-65
2023/01/10 08:51:43;;;;;;;17.02;2.95;;;;;;;8.25;65.19;101756.09;5098862;28;20044;-67
2023/01/10 08:54:11;;;;;;;15.23;3.97;;;;;;;8.24;65.01;101759.78;5102827;28;20136;-66
2023/01/10 08:56:39;;;;;;;21.95;3.80;;;;;;;8.24;64.63;101745.56;5103407;28;20116;-66
2023/01/10 08:59:08;;;;;;;23.10;5.30;;;;;;;8.24;65.73;101756.28;5101829;28;20074;-67
2023/01/10 09:01:37;;;;;;;18.35;3.58;;;;;;;8.24;65.58;101741.03;5103161;28;20063;-67
2023/01/10 09:04:05;;;;;;;16.83;3.78;;;;;;;8.26;65.33;101747.03;5105317;28;20064;-66
2023/01/10 09:06:33;;;;;;;12.55;2.97;;;;;;;8.26;65.18;101735.50;5103426;28;20050;-67
2023/01/10 09:09:01;;;;;;;12.65;3.38;;;;;;;8.25;65.75;101741.88;5104493;28;20689;-67
2023/01/10 09:11:28;;;;;;;17.38;3.20;;;;;;;8.22;65.48;101734.22;5103626;28;20048;-67
2023/01/10 09:13:56;;;;;;;22.92;4.47;;;;;;;8.24;66.12;101751.75;5095874;28;20077;-67
2023/01/10 09:16:24;;;;;;;18.02;3.38;;;;;;;8.23;65.40;101742.06;5117407;28;20485;-66
2023/01/10 09:18:55;;;;;;;16.92;3.10;;;;;;;8.25;65.43;101741.88;5104125;28;20481;-67
2023/01/10 09:21:22;;;;;;;15.27;3.50;;;;;;;8.27;65.17;101742.53;5102749;28;20544;-67
2023/01/10 09:23:50;;;;;;;14.20;4.57;;;;;;;8.27;65.08;101738.00;5095187;28;20056;-67
2023/01/10 09:26:18;;;;;;;17.48;3.30;;;;;;;8.26;65.38;101740.84;5103602;28;20044;-65
2023/01/10 09:28:46;;;;;;;17.25;4.15;;;;;;;8.25;65.50;101736.53;5104343;28;20051;-67
2023/01/10 09:31:15;;;;;;;19.80;4.38;;;;;;;8.25;65.74;101741.88;5102049;28;20055;-67
2023/01/10 09:33:43;;;;;;;17.75;3.42;;;;;;;8.26;65.50;101743.53;5104377;28;20074;-66
2023/01/10 09:36:15;;;;;;;17.10;4.35;;;;;;;8.25;65.36;101745.38;5103937;28;20070;-64
2023/01/10 09:38:43;;;;;;;13.48;4.10;;;;;;;8.25;65.93;101744.56;5103643;28;20114;-63
2023/01/10 09:41:22;;;;;;;15.02;3.30;;;;;;;8.26;65.09;101741.69;5102467;28;20048;-66
2023/01/10 09:43:59;;;;;;;17.67;4.32;;;;;;;8.29;65.70;101740.50;5103851;28;20127;-66
2023/01/10 09:46:39;;;;;;;14.63;4.05;;;;;;;8.28;65.01;101736.97;5093874;28;20154;-66
2023/01/10 09:49:21;;;;;;;15.05;4.03;;;;;;;8.27;65.75;101742.53;5104612;28;20048;-67
2023/01/10 09:51:53;;;;;;;13.88;3.17;;;;;;;8.27;66.48;101745.19;5103251;28;20097;-64
2023/01/10 09:54:26;;;;;;;13.80;2.92;;;;;;;8.28;65.44;101742.34;5102041;28;20054;-66
2023/01/10 09:56:55;;;;;;;14.63;3.70;;;;;;;8.26;65.78;101743.53;5101337;28;20127;-67
2023/01/10 09:59:26;;;;;;;16.65;4.53;;;;;;;8.27;65.77;101734.50;5102446;28;20066;-67
2023/01/10 10:02:01;;;;;;;14.07;3.15;;;;;;;8.27;66.31;101737.16;5102487;28;20044;-66
2023/01/10 10:04:35;;;;;;;10.70;2.88;;;;;;;8.27;65.85;101731.81;5099446;28;20112;-67
2023/01/10 10:07:11;;;;;;;16.92;3.15;;;;;;;8.20;66.17;101725.53;5103887;28;20097;-67
2023/01/10 10:09:39;;;;;;;12.35;3.58;;;;;;;8.22;66.94;101736.88;5101416;28;20104;-66
2023/01/10 10:12:25;;;;;;;10.60;3.13;;;;;;;8.31;66.14;101741.97;5101336;28;20134;-67
2023/01/10 10:15:07;;;;;;;18.35;4.07;;;;;;;8.46;65.21;101733.94;5098452;28;20085;-67
2023/01/10 10:17:45;;;;;;;18.38;3.10;;;;;;;8.66;65.36;101731.53;5102082;28;20116;-68
2023/01/10 10:20:27;;;;;;;13.18;2.75;;;;;;;8.88;64.46;101721.66;5095037;28;20044;-67
2023/01/10 10:23:15;;;;;;;16.08;4.32;;;;;;;9.13;64.13;101715.75;5102068;28;20079;-67
2023/01/10 10:25:55;;;;;;;16.55;3.47;;;;;;;9.34;63.55;101717.59;5097598;28;20117;-67
2023/01/10 10:28:41;;;;;;;12.85;3.90;;;;;;;9.52;62.17;101713.63;5101047;28;20050;-67
2023/01/10 10:31:30;;;;;;;10.38;2.63;;;;;;;9.68;62.11;101708.81;5100465;28;20074;-67
2023/01/10 10:34:05;;;;;;;15.10;4.82;;;;;;;9.86;61.28;101702.94;5109269;28;20044;-67
2023/01/10 10:36:40;;;;;;;8.55;2.83;;;;;;;10.04;61.13;101699.75;5103591;28;20101;-67
2023/01/10 10:39:14;;;;;;;9.55;2.50;;;;;;;10.23;60.28;101684.81;5103266;28;20048;-66
2023/01/10 10:41:44;;;;;;;11.50;3.45;;;;;;;10.30;60.11;101683.00;5109053;28;20047;-67
2023/01/10 10:44:30;;;;;;;11.10;2.95;;;;;;;10.33;60.00;101683.41;5095325;28;20128;-67
2023/01/10 10:46:59;;;;;;;7.18;3.03;;;;;;;10.37;60.24;101679.31;5091370;28;20130;-65
2023/01/10 10:49:37;;;;;;;10.75;4.43;;;;;;;10.41;59.79;101667.09;5103542;28;20395;-67
2023/01/10 10:52:17;;;;;;;9.73;2.80;;;;;;;10.43;59.86;101661.50;5102423;28;20055;-67
2023/01/10 10:54:46;;;;;;;9.07;3.03;;;;;;;10.47;60.08;101670.84;5096374;28;20051;-66
2023/01/10 10:57:14;;;;;;;12.00;2.45;;;;;;;10.53;59.98;101669.19;4739368;28;10000347;-67
2023/01/10 10:59:46;;;;;;;12.30;3.42;;;;;;;10.53;59.67;101663.81;5099019;28;20054;-67
2023/01/10 11:02:22;;;;;;;13.65;3.50;;;;;;;10.53;59.81;101659.28;5100135;28;20059;-67
2023/01/10 11:04:52;;;;;;;13.27;3.40;;;;;;;10.55;59.88;101651.00;5097628;28;20051;-67
2023/01/10 11:07:22;;;;;;;14.93;3.25;;;;;;;10.51;59.86;101626.41;5100578;28;20058;-67
2023/01/10 11:09:56;;;;;;;10.50;3.28;;;;;;;10.62;59.79;101644.63;5103526;28;20052;-68
2023/01/10 11:12:30;;;;;;;13.18;4.28;;;;;;;10.66;59.60;101634.31;5101681;28;20143;-67
2023/01/10 11:15:01;;;;;;;13.80;4.65;;;;;;;10.67;59.59;101646.72;5099846;28;20197;-67
2023/01/10 11:17:32;;;;;;;13.27;3.30;;;;;;;10.68;59.97;101634.94;5103351;28;20101;-65
2023/01/10 11:20:02;;;;;;;13.65;3.80;;;;;;;10.71;59.76;101632.66;5103810;28;20127;-66
2023/01/10 11:22:39;;;;;;;12.50;3.30;;;;;;;10.75;59.82;101630.41;5102466;28;20122;-62
2023/01/10 11:25:16;;;;;;;15.85;3.92;;;;;;;10.81;60.06;101629.56;5090281;28;20080;-65
2023/01/10 11:27:48;;;;;;;15.23;3.42;;;;;;;10.86;59.88;101628.97;5102143;28;20051;-66
2023/01/10 11:30:21;;;;;;;11.10;3.22;;;;;;;10.93;59.26;101624.41;5102553;28;20052;-67
2023/01/10 11:32:53;;;;;;;12.98;3.00;;;;;;;10.95;59.47;101631.25;5094474;28;20111;-66
2023/01/10 11:35:25;;;;;;;11.18;3.88;;;;;;;10.93;59.55;101627.94;5102339;28;20100;-66
2023/01/10 11:38:01;;;;;;;10.27;2.63;;;;;;;11.05;59.19;101607.47;5098562;28;20048;-67
2023/01/10 11:40:31;;;;;;;10.52;3.28;;;;;;;11.28;59.38;101623.19;5104909;28;20131;-66
2023/01/10 11:43:02;;;;;;;10.52;2.67;;;;;;;11.21;58.82;101630.44;5102128;28;20087;-66
2023/01/10 11:45:32;;;;;;;15.45;3.08;;;;;;;11.20;59.88;101614.50;5097499;28;20112;-66
2023/01/10 11:48:08;;;;;;;9.77;2.30;;;;;;;11.05;59.18;101612.03;5103339;28;20052;-64
2023/01/10 11:50:38;;;;;;;9.02;3.05;;;;;;;11.30;59.51;101625.69;5100502;28;20073;-64